sensor_id;sensor_type;location;lat;lon;timestamp;P1;durP1;ratioP1;P2;durP2;ratioP2
78324;SDS011;67584;51.400;6.692;2024-02-21T00:00:37;22.42;;;8.10;;
78324;SDS011;67584;51.400;6.692;2024-02-21T00:03:04;12.43;;;6.75;;
78324;SDS011;67584;51.400;6.692;2024-02-21T00:05:30;17.55;;;8.35;;
78324;SDS011;67584;51.400;6.692;2024-02-21T00:07:57;15.70;;;9.13;;
78324;SDS011;67584;51.400;6.692;2024-02-21T00:10:24;17.73;;;8.63;;
78324;SDS011;67584;51.400;6.692;2024-02-21T00:12:50;16.13;;;9.38;;
78324;SDS011;67584;51.400;6.692;2024-02-21T00:15:16;15.40;;;8.88;;
78324;SDS011;67584;51.400;6.692;2024-02-21T00:17:43;16.05;;;9.25;;
78324;SDS011;67584;51.400;6.692;2024-02-21T00:20:09;17.75;;;8.30;;
78324;SDS011;67584;51.400;6.692;2024-02-21T00:22:35;14.65;;;7.72;;
78324;SDS011;67584;51.400;6.692;2024-02-21T00:25:01;20.42;;;12.20;;
78324;SDS011;67584;51.400;6.692;2024-02-21T00:27:27;19.52;;;8.43;;
78324;SDS011;67584;51.400;6.692;2024-02-21T00:29:53;16.67;;;8.75;;
78324;SDS011;67584;51.400;6.692;2024-02-21T00:32:19;24.58;;;8.98;;
78324;SDS011;67584;51.400;6.692;2024-02-21T00:34:44;21.35;;;8.52;;
78324;SDS011;67584;51.400;6.692;2024-02-21T00:37:10;16.38;;;9.18;;
78324;SDS011;67584;51.400;6.692;2024-02-21T00:39:36;15.98;;;9.38;;
78324;SDS011;67584;51.400;6.692;2024-02-21T00:42:02;21.20;;;10.27;;
78324;SDS011;67584;51.400;6.692;2024-02-21T00:44:28;16.80;;;8.88;;
78324;SDS011;67584;51.400;6.692;2024-02-21T00:46:53;18.17;;;9.02;;
78324;SDS011;67584;51.400;6.692;2024-02-21T00:49:19;19.15;;;10.60;;
78324;SDS011;67584;51.400;6.692;2024-02-21T00:51:45;14.65;;;8.52;;
78324;SDS011;67584;51.400;6.692;2024-02-21T00:54:10;19.00;;;8.68;;
78324;SDS011;67584;51.400;6.692;2024-02-21T00:56:36;23.23;;;9.15;;
78324;SDS011;67584;51.400;6.692;2024-02-21T00:59:02;15.35;;;8.00;;
78324;SDS011;67584;51.400;6.692;2024-02-21T01:01:27;17.08;;;9.23;;
78324;SDS011;67584;51.400;6.692;2024-02-21T01:03:53;14.57;;;7.40;;
78324;SDS011;67584;51.400;6.692;2024-02-21T01:06:19;15.52;;;8.70;;
78324;SDS011;67584;51.400;6.692;2024-02-21T01:08:46;13.27;;;6.65;;
78324;SDS011;67584;51.400;6.692;2024-02-21T01:11:13;17.85;;;8.50;;
78324;SDS011;67584;51.400;6.692;2024-02-21T01:13:39;17.17;;;7.45;;
78324;SDS011;67584;51.400;6.692;2024-02-21T01:16:05;16.23;;;8.38;;
78324;SDS011;67584;51.400;6.692;2024-02-21T01:18:32;22.88;;;7.55;;
78324;SDS011;67584;51.400;6.692;2024-02-21T01:21:07;17.15;;;9.07;;
78324;SDS011;67584;51.400;6.692;2024-02-21T01:23:36;18.25;;;7.30;;
78324;SDS011;67584;51.400;6.692;2024-02-21T01:26:03;21.00;;;9.43;;
78324;SDS011;67584;51.400;6.692;2024-02-21T01:28:29;19.80;;;8.65;;
78324;SDS011;67584;51.400;6.692;2024-02-21T01:30:55;17.35;;;8.80;;
78324;SDS011;67584;51.400;6.692;2024-02-21T01:33:22;17.67;;;8.30;;
78324;SDS011;67584;51.400;6.692;2024-02-21T01:35:47;14.23;;;7.53;;
78324;SDS011;67584;51.400;6.692;2024-02-21T01:38:14;13.40;;;7.53;;
78324;SDS011;67584;51.400;6.692;2024-02-21T01:40:40;16.95;;;7.88;;
78324;SDS011;67584;51.400;6.692;2024-02-21T01:43:15;12.70;;;6.80;;
78324;SDS011;67584;51.400;6.692;2024-02-21T01:45:42;14.65;;;6.55;;
78324;SDS011;67584;51.400;6.692;2024-02-21T01:48:07;14.27;;;7.28;;
78324;SDS011;67584;51.400;6.692;2024-02-21T01:50:33;16.23;;;7.45;;
78324;SDS011;67584;51.400;6.692;2024-02-21T01:52:59;13.90;;;7.97;;
78324;SDS011;67584;51.400;6.692;2024-02-21T01:55:25;14.10;;;6.80;;
78324;SDS011;67584;51.400;6.692;2024-02-21T01:57:55;12.90;;;4.63;;
78324;SDS011;67584;51.400;6.692;2024-02-21T02:00:21;14.70;;;7.25;;
78324;SDS011;67584;51.400;6.692;2024-02-21T02:02:47;15.43;;;7.18;;
78324;SDS011;67584;51.400;6.692;2024-02-21T02:05:12;10.95;;;7.10;;
78324;SDS011;67584;51.400;6.692;2024-02-21T02:07:38;14.65;;;7.70;;
78324;SDS011;67584;51.400;6.692;2024-02-21T02:10:04;20.67;;;9.30;;
78324;SDS011;67584;51.400;6.692;2024-02-21T02:12:30;11.07;;;7.88;;
78324;SDS011;67584;51.400;6.692;2024-02-21T02:15:00;18.00;;;6.88;;
78324;SDS011;67584;51.400;6.692;2024-02-21T02:17:26;14.63;;;7.00;;
78324;SDS011;67584;51.400;6.692;2024-02-21T02:19:51;14.57;;;9.10;;
78324;SDS011;67584;51.400;6.692;2024-02-21T02:22:20;13.95;;;6.80;;
78324;SDS011;67584;51.400;6.692;2024-02-21T02:24:47;14.23;;;8.25;;
78324;SDS011;67584;51.400;6.692;2024-02-21T02:27:14;12.65;;;6.60;;
78324;SDS011;67584;51.400;6.692;2024-02-21T02:29:39;13.30;;;8.38;;
78324;SDS011;67584;51.400;6.692;2024-02-21T02:32:05;15.57;;;7.32;;
78324;SDS011;67584;51.400;6.692;2024-02-21T02:34:31;11.50;;;6.80;;
78324;SDS011;67584;51.400;6.692;2024-02-21T02:36:57;12.05;;;6.13;;
78324;SDS011;67584;51.400;6.692;2024-02-21T02:39:22;12.68;;;5.78;;
78324;SDS011;67584;51.400;6.692;2024-02-21T02:41:48;12.95;;;6.40;;
78324;SDS011;67584;51.400;6.692;2024-02-21T02:44:14;15.05;;;7.85;;
78324;SDS011;67584;51.400;6.692;2024-02-21T02:46:40;10.73;;;5.72;;
78324;SDS011;67584;51.400;6.692;2024-02-21T02:49:06;12.93;;;6.78;;
78324;SDS011;67584;51.400;6.692;2024-02-21T02:51:32;15.38;;;7.63;;
78324;SDS011;67584;51.400;6.692;2024-02-21T02:53:57;14.57;;;7.47;;
78324;SDS011;67584;51.400;6.692;2024-02-21T02:56:23;14.77;;;7.00;;
78324;SDS011;67584;51.400;6.692;2024-02-21T02:58:49;15.10;;;7.28;;
78324;SDS011;67584;51.400;6.692;2024-02-21T03:01:14;9.77;;;6.50;;
78324;SDS011;67584;51.400;6.692;2024-02-21T03:03:40;8.95;;;6.07;;
78324;SDS011;67584;51.400;6.692;2024-02-21T03:06:06;16.60;;;7.80;;
78324;SDS011;67584;51.400;6.692;2024-02-21T03:08:31;15.70;;;8.68;;
78324;SDS011;67584;51.400;6.692;2024-02-21T03:10:58;15.65;;;6.65;;
78324;SDS011;67584;51.400;6.692;2024-02-21T03:13:25;13.70;;;7.03;;
78324;SDS011;67584;51.400;6.692;2024-02-21T03:15:50;16.20;;;7.28;;
78324;SDS011;67584;51.400;6.692;2024-02-21T03:18:16;15.68;;;7.88;;
78324;SDS011;67584;51.400;6.692;2024-02-21T03:20:42;13.73;;;7.22;;
78324;SDS011;67584;51.400;6.692;2024-02-21T03:23:07;12.18;;;7.28;;
78324;SDS011;67584;51.400;6.692;2024-02-21T03:25:33;16.35;;;7.32;;
78324;SDS011;67584;51.400;6.692;2024-02-21T03:27:59;13.70;;;7.95;;
78324;SDS011;67584;51.400;6.692;2024-02-21T03:30:24;18.05;;;7.47;;
78324;SDS011;67584;51.400;6.692;2024-02-21T03:32:50;13.10;;;6.25;;
78324;SDS011;67584;51.400;6.692;2024-02-21T03:35:16;17.48;;;7.45;;
78324;SDS011;67584;51.400;6.692;2024-02-21T03:37:42;17.23;;;7.68;;
78324;SDS011;67584;51.400;6.692;2024-02-21T03:40:09;15.07;;;7.72;;
78324;SDS011;67584;51.400;6.692;2024-02-21T03:42:35;10.98;;;5.90;;
78324;SDS011;67584;51.400;6.692;2024-02-21T03:45:02;14.73;;;7.18;;
78324;SDS011;67584;51.400;6.692;2024-02-21T03:47:28;12.80;;;7.20;;
78324;SDS011;67584;51.400;6.692;2024-02-21T03:49:54;12.48;;;6.93;;
78324;SDS011;67584;51.400;6.692;2024-02-21T03:52:20;15.43;;;7.78;;
78324;SDS011;67584;51.400;6.692;2024-02-21T03:54:45;12.98;;;7.15;;
78324;SDS011;67584;51.400;6.692;2024-02-21T03:57:11;15.50;;;6.60;;
78324;SDS011;67584;51.400;6.692;2024-02-21T03:59:37;14.20;;;7.50;;
78324;SDS011;67584;51.400;6.692;2024-02-21T04:02:05;12.57;;;6.40;;
78324;SDS011;67584;51.400;6.692;2024-02-21T04:04:34;14.73;;;7.03;;
78324;SDS011;67584;51.400;6.692;2024-02-21T04:09:31;9.55;;;5.68;;
78324;SDS011;67584;51.400;6.692;2024-02-21T04:11:58;14.18;;;6.93;;
78324;SDS011;67584;51.400;6.692;2024-02-21T04:14:24;10.88;;;5.40;;
78324;SDS011;67584;51.400;6.692;2024-02-21T04:16:50;11.38;;;5.88;;
78324;SDS011;67584;51.400;6.692;2024-02-21T04:19:22;13.95;;;6.63;;
78324;SDS011;67584;51.400;6.692;2024-02-21T04:21:48;11.73;;;5.20;;
78324;SDS011;67584;51.400;6.692;2024-02-21T04:24:14;12.30;;;6.88;;
78324;SDS011;67584;51.400;6.692;2024-02-21T04:26:39;14.25;;;6.47;;
78324;SDS011;67584;51.400;6.692;2024-02-21T04:29:05;13.23;;;6.43;;
78324;SDS011;67584;51.400;6.692;2024-02-21T04:31:34;13.18;;;6.35;;
78324;SDS011;67584;51.400;6.692;2024-02-21T04:36:25;13.02;;;6.25;;
78324;SDS011;67584;51.400;6.692;2024-02-21T04:38:51;12.57;;;5.82;;
78324;SDS011;67584;51.400;6.692;2024-02-21T04:41:17;10.88;;;5.63;;
78324;SDS011;67584;51.400;6.692;2024-02-21T04:43:42;10.10;;;5.35;;
78324;SDS011;67584;51.400;6.692;2024-02-21T04:46:08;10.55;;;5.93;;
78324;SDS011;67584;51.400;6.692;2024-02-21T04:48:34;9.30;;;4.68;;
78324;SDS011;67584;51.400;6.692;2024-02-21T04:51:00;13.40;;;6.63;;
78324;SDS011;67584;51.400;6.692;2024-02-21T04:53:26;9.30;;;5.82;;
78324;SDS011;67584;51.400;6.692;2024-02-21T04:55:52;11.55;;;6.53;;
78324;SDS011;67584;51.400;6.692;2024-02-21T04:58:17;9.48;;;5.30;;
78324;SDS011;67584;51.400;6.692;2024-02-21T05:00:43;10.10;;;5.75;;
78324;SDS011;67584;51.400;6.692;2024-02-21T05:03:09;8.07;;;6.25;;
78324;SDS011;67584;51.400;6.692;2024-02-21T05:05:34;9.80;;;5.10;;
78324;SDS011;67584;51.400;6.692;2024-02-21T05:08:00;13.48;;;7.05;;
78324;SDS011;67584;51.400;6.692;2024-02-21T05:10:26;8.70;;;4.93;;
78324;SDS011;67584;51.400;6.692;2024-02-21T05:12:52;14.95;;;6.90;;
78324;SDS011;67584;51.400;6.692;2024-02-21T05:15:18;8.85;;;5.72;;
78324;SDS011;67584;51.400;6.692;2024-02-21T05:17:43;10.85;;;6.35;;
78324;SDS011;67584;51.400;6.692;2024-02-21T05:20:10;9.38;;;5.50;;
78324;SDS011;67584;51.400;6.692;2024-02-21T05:22:35;13.35;;;5.85;;
78324;SDS011;67584;51.400;6.692;2024-02-21T05:25:01;10.75;;;5.30;;
78324;SDS011;67584;51.400;6.692;2024-02-21T05:27:27;11.48;;;6.03;;
78324;SDS011;67584;51.400;6.692;2024-02-21T05:29:53;11.75;;;5.22;;
78324;SDS011;67584;51.400;6.692;2024-02-21T05:32:19;9.73;;;5.50;;
78324;SDS011;67584;51.400;6.692;2024-02-21T05:34:48;5.70;;;4.10;;
78324;SDS011;67584;51.400;6.692;2024-02-21T05:37:14;14.88;;;5.85;;
78324;SDS011;67584;51.400;6.692;2024-02-21T05:39:40;9.35;;;5.57;;
78324;SDS011;67584;51.400;6.692;2024-02-21T05:42:06;7.18;;;4.38;;
78324;SDS011;67584;51.400;6.692;2024-02-21T05:44:32;9.00;;;4.90;;
78324;SDS011;67584;51.400;6.692;2024-02-21T05:46:57;18.10;;;6.20;;
78324;SDS011;67584;51.400;6.692;2024-02-21T05:49:23;8.48;;;4.50;;
78324;SDS011;67584;51.400;6.692;2024-02-21T05:51:54;8.82;;;4.75;;
78324;SDS011;67584;51.400;6.692;2024-02-21T05:54:39;10.13;;;5.20;;
78324;SDS011;67584;51.400;6.692;2024-02-21T05:57:06;9.35;;;5.20;;
78324;SDS011;67584;51.400;6.692;2024-02-21T05:59:32;10.10;;;5.50;;
78324;SDS011;67584;51.400;6.692;2024-02-21T06:01:59;10.23;;;4.78;;
78324;SDS011;67584;51.400;6.692;2024-02-21T06:04:25;8.82;;;5.10;;
78324;SDS011;67584;51.400;6.692;2024-02-21T06:06:50;10.35;;;5.00;;
78324;SDS011;67584;51.400;6.692;2024-02-21T06:09:16;10.85;;;5.68;;
78324;SDS011;67584;51.400;6.692;2024-02-21T06:11:42;7.90;;;5.28;;
78324;SDS011;67584;51.400;6.692;2024-02-21T06:14:07;11.32;;;4.90;;
78324;SDS011;67584;51.400;6.692;2024-02-21T06:16:53;12.32;;;5.40;;
78324;SDS011;67584;51.400;6.692;2024-02-21T06:19:19;6.07;;;3.83;;
78324;SDS011;67584;51.400;6.692;2024-02-21T06:21:50;10.30;;;5.38;;
78324;SDS011;67584;51.400;6.692;2024-02-21T06:24:25;8.75;;;4.15;;
78324;SDS011;67584;51.400;6.692;2024-02-21T06:26:50;12.35;;;6.78;;
78324;SDS011;67584;51.400;6.692;2024-02-21T06:29:16;8.80;;;4.90;;
78324;SDS011;67584;51.400;6.692;2024-02-21T06:31:42;7.43;;;4.50;;
78324;SDS011;67584;51.400;6.692;2024-02-21T06:34:07;9.85;;;4.82;;
78324;SDS011;67584;51.400;6.692;2024-02-21T06:36:33;8.35;;;5.07;;
78324;SDS011;67584;51.400;6.692;2024-02-21T06:39:02;6.82;;;4.43;;
78324;SDS011;67584;51.400;6.692;2024-02-21T06:41:32;7.47;;;5.07;;
78324;SDS011;67584;51.400;6.692;2024-02-21T06:43:59;11.20;;;5.15;;
78324;SDS011;67584;51.400;6.692;2024-02-21T06:46:28;14.20;;;5.18;;
78324;SDS011;67584;51.400;6.692;2024-02-21T06:48:54;9.25;;;5.22;;
78324;SDS011;67584;51.400;6.692;2024-02-21T06:51:28;10.70;;;4.93;;
78324;SDS011;67584;51.400;6.692;2024-02-21T06:53:53;8.80;;;5.10;;
78324;SDS011;67584;51.400;6.692;2024-02-21T06:56:19;9.45;;;4.70;;
78324;SDS011;67584;51.400;6.692;2024-02-21T06:58:45;9.23;;;6.75;;
78324;SDS011;67584;51.400;6.692;2024-02-21T07:01:11;7.88;;;5.38;;
78324;SDS011;67584;51.400;6.692;2024-02-21T07:03:40;8.45;;;4.05;;
78324;SDS011;67584;51.400;6.692;2024-02-21T07:06:06;9.52;;;5.55;;
78324;SDS011;67584;51.400;6.692;2024-02-21T07:08:32;13.90;;;4.78;;
78324;SDS011;67584;51.400;6.692;2024-02-21T07:10:57;8.88;;;5.15;;
78324;SDS011;67584;51.400;6.692;2024-02-21T07:13:23;11.30;;;4.63;;
78324;SDS011;67584;51.400;6.692;2024-02-21T07:15:49;10.35;;;5.63;;
78324;SDS011;67584;51.400;6.692;2024-02-21T07:18:14;7.85;;;5.22;;
78324;SDS011;67584;51.400;6.692;2024-02-21T07:20:40;7.22;;;4.20;;
78324;SDS011;67584;51.400;6.692;2024-02-21T07:23:06;9.77;;;4.70;;
78324;SDS011;67584;51.400;6.692;2024-02-21T07:25:33;8.07;;;4.35;;
78324;SDS011;67584;51.400;6.692;2024-02-21T07:28:00;8.52;;;4.43;;
78324;SDS011;67584;51.400;6.692;2024-02-21T07:30:35;8.02;;;4.07;;
78324;SDS011;67584;51.400;6.692;2024-02-21T07:33:00;5.25;;;3.15;;
78324;SDS011;67584;51.400;6.692;2024-02-21T07:35:26;6.82;;;4.43;;
78324;SDS011;67584;51.400;6.692;2024-02-21T07:37:52;10.50;;;4.90;;
78324;SDS011;67584;51.400;6.692;2024-02-21T07:40:17;11.23;;;4.85;;
78324;SDS011;67584;51.400;6.692;2024-02-21T07:42:43;7.95;;;3.85;;
78324;SDS011;67584;51.400;6.692;2024-02-21T07:45:09;5.78;;;3.63;;
78324;SDS011;67584;51.400;6.692;2024-02-21T07:47:36;9.07;;;4.68;;
78324;SDS011;67584;51.400;6.692;2024-02-21T07:50:02;8.90;;;4.53;;
78324;SDS011;67584;51.400;6.692;2024-02-21T07:52:42;7.90;;;4.00;;
78324;SDS011;67584;51.400;6.692;2024-02-21T07:55:08;8.00;;;4.18;;
78324;SDS011;67584;51.400;6.692;2024-02-21T07:57:35;8.75;;;4.40;;
78324;SDS011;67584;51.400;6.692;2024-02-21T08:00:02;8.20;;;3.50;;
78324;SDS011;67584;51.400;6.692;2024-02-21T08:02:37;7.82;;;4.38;;
78324;SDS011;67584;51.400;6.692;2024-02-21T08:05:03;7.95;;;3.97;;
78324;SDS011;67584;51.400;6.692;2024-02-21T08:07:29;8.65;;;4.55;;
78324;SDS011;67584;51.400;6.692;2024-02-21T08:09:56;9.27;;;4.35;;
78324;SDS011;67584;51.400;6.692;2024-02-21T08:12:21;9.52;;;4.22;;
78324;SDS011;67584;51.400;6.692;2024-02-21T08:14:50;7.38;;;3.58;;
78324;SDS011;67584;51.400;6.692;2024-02-21T08:17:16;7.05;;;4.20;;
78324;SDS011;67584;51.400;6.692;2024-02-21T08:19:41;8.35;;;5.50;;
78324;SDS011;67584;51.400;6.692;2024-02-21T08:22:07;8.10;;;4.88;;
78324;SDS011;67584;51.400;6.692;2024-02-21T08:24:52;7.53;;;4.22;;
78324;SDS011;67584;51.400;6.692;2024-02-21T08:27:18;9.73;;;4.50;;
78324;SDS011;67584;51.400;6.692;2024-02-21T08:29:44;8.75;;;4.88;;
78324;SDS011;67584;51.400;6.692;2024-02-21T08:32:09;6.65;;;3.97;;
78324;SDS011;67584;51.400;6.692;2024-02-21T08:34:35;9.80;;;4.97;;
78324;SDS011;67584;51.400;6.692;2024-02-21T08:37:01;8.65;;;3.75;;
78324;SDS011;67584;51.400;6.692;2024-02-21T08:39:47;9.30;;;4.75;;
78324;SDS011;67584;51.400;6.692;2024-02-21T08:42:12;12.00;;;4.28;;
78324;SDS011;67584;51.400;6.692;2024-02-21T08:44:39;6.38;;;3.65;;
78324;SDS011;67584;51.400;6.692;2024-02-21T08:47:05;8.23;;;3.60;;
78324;SDS011;67584;51.400;6.692;2024-02-21T08:49:33;9.98;;;4.47;;
78324;SDS011;67584;51.400;6.692;2024-02-21T08:51:58;11.75;;;4.25;;
78324;SDS011;67584;51.400;6.692;2024-02-21T08:54:24;6.97;;;4.50;;
78324;SDS011;67584;51.400;6.692;2024-02-21T08:56:50;7.88;;;3.90;;
78324;SDS011;67584;51.400;6.692;2024-02-21T08:59:15;9.02;;;3.35;;
78324;SDS011;67584;51.400;6.692;2024-02-21T09:01:41;11.38;;;5.13;;
78324;SDS011;67584;51.400;6.692;2024-02-21T09:04:18;9.40;;;4.00;;
78324;SDS011;67584;51.400;6.692;2024-02-21T09:06:47;6.68;;;4.15;;
78324;SDS011;67584;51.400;6.692;2024-02-21T09:09:33;8.20;;;4.53;;
78324;SDS011;67584;51.400;6.692;2024-02-21T09:11:59;12.63;;;4.50;;
78324;SDS011;67584;51.400;6.692;2024-02-21T09:18:18;7.32;;;3.90;;
78324;SDS011;67584;51.400;6.692;2024-02-21T09:20:44;5.32;;;4.00;;
78324;SDS011;67584;51.400;6.692;2024-02-21T09:23:10;8.73;;;4.20;;
78324;SDS011;67584;51.400;6.692;2024-02-21T09:25:36;6.88;;;3.97;;
78324;SDS011;67584;51.400;6.692;2024-02-21T09:28:02;7.07;;;3.10;;
78324;SDS011;67584;51.400;6.692;2024-02-21T09:30:28;12.48;;;3.70;;
78324;SDS011;67584;51.400;6.692;2024-02-21T09:32:55;7.95;;;4.03;;
78324;SDS011;67584;51.400;6.692;2024-02-21T09:35:23;6.07;;;3.55;;
78324;SDS011;67584;51.400;6.692;2024-02-21T09:37:51;8.18;;;3.63;;
78324;SDS011;67584;51.400;6.692;2024-02-21T09:40:17;7.43;;;3.65;;
78324;SDS011;67584;51.400;6.692;2024-02-21T09:42:43;4.05;;;3.08;;
78324;SDS011;67584;51.400;6.692;2024-02-21T09:45:17;8.25;;;4.07;;
78324;SDS011;67584;51.400;6.692;2024-02-21T09:48:06;7.03;;;4.18;;
78324;SDS011;67584;51.400;6.692;2024-02-21T09:50:56;7.78;;;4.60;;
78324;SDS011;67584;51.400;6.692;2024-02-21T09:53:24;6.57;;;3.08;;
78324;SDS011;67584;51.400;6.692;2024-02-21T09:55:50;6.63;;;4.20;;
78324;SDS011;67584;51.400;6.692;2024-02-21T09:58:16;6.47;;;3.78;;
78324;SDS011;67584;51.400;6.692;2024-02-21T10:00:43;7.00;;;3.10;;
78324;SDS011;67584;51.400;6.692;2024-02-21T10:03:09;6.88;;;3.35;;
78324;SDS011;67584;51.400;6.692;2024-02-21T10:05:35;6.15;;;3.30;;
78324;SDS011;67584;51.400;6.692;2024-02-21T10:08:01;6.32;;;3.53;;
78324;SDS011;67584;51.400;6.692;2024-02-21T10:10:27;6.28;;;3.38;;
78324;SDS011;67584;51.400;6.692;2024-02-21T10:12:55;7.75;;;3.72;;
78324;SDS011;67584;51.400;6.692;2024-02-21T10:15:23;8.15;;;3.15;;
78324;SDS011;67584;51.400;6.692;2024-02-21T10:17:59;5.22;;;3.17;;
78324;SDS011;67584;51.400;6.692;2024-02-21T10:20:25;3.97;;;2.67;;
78324;SDS011;67584;51.400;6.692;2024-02-21T10:23:05;6.70;;;3.33;;
78324;SDS011;67584;51.400;6.692;2024-02-21T10:25:34;6.55;;;3.38;;
78324;SDS011;67584;51.400;6.692;2024-02-21T10:28:03;5.93;;;3.15;;
78324;SDS011;67584;51.400;6.692;2024-02-21T10:30:29;6.30;;;2.85;;
78324;SDS011;67584;51.400;6.692;2024-02-21T10:32:55;4.65;;;2.78;;
78324;SDS011;67584;51.400;6.692;2024-02-21T10:37:57;4.38;;;2.88;;
78324;SDS011;67584;51.400;6.692;2024-02-21T10:40:23;3.70;;;2.78;;
78324;SDS011;67584;51.400;6.692;2024-02-21T10:42:56;6.20;;;3.03;;
78324;SDS011;67584;51.400;6.692;2024-02-21T10:45:31;6.68;;;3.20;;
78324;SDS011;67584;51.400;6.692;2024-02-21T10:48:22;6.82;;;3.50;;
78324;SDS011;67584;51.400;6.692;2024-02-21T10:50:57;7.35;;;2.97;;
78324;SDS011;67584;51.400;6.692;2024-02-21T10:59:01;4.57;;;2.67;;
78324;SDS011;67584;51.400;6.692;2024-02-21T11:01:30;5.30;;;2.72;;
78324;SDS011;67584;51.400;6.692;2024-02-21T11:04:03;5.97;;;2.67;;
78324;SDS011;67584;51.400;6.692;2024-02-21T11:06:31;5.13;;;3.20;;
78324;SDS011;67584;51.400;6.692;2024-02-21T11:09:02;6.00;;;3.03;;
78324;SDS011;67584;51.400;6.692;2024-02-21T11:14:03;6.78;;;3.03;;
78324;SDS011;67584;51.400;6.692;2024-02-21T11:16:34;5.72;;;2.83;;
78324;SDS011;67584;51.400;6.692;2024-02-21T11:21:48;7.63;;;3.65;;
78324;SDS011;67584;51.400;6.692;2024-02-21T11:24:25;7.47;;;3.58;;
78324;SDS011;67584;51.400;6.692;2024-02-21T11:26:52;5.40;;;3.40;;
78324;SDS011;67584;51.400;6.692;2024-02-21T11:29:23;6.45;;;3.55;;
78324;SDS011;67584;51.400;6.692;2024-02-21T11:31:53;7.30;;;3.38;;
78324;SDS011;67584;51.400;6.692;2024-02-21T11:34:20;4.65;;;3.13;;
78324;SDS011;67584;51.400;6.692;2024-02-21T11:36:49;6.03;;;3.30;;
78324;SDS011;67584;51.400;6.692;2024-02-21T11:39:23;7.43;;;4.07;;
78324;SDS011;67584;51.400;6.692;2024-02-21T11:44:29;6.03;;;2.80;;
78324;SDS011;67584;51.400;6.692;2024-02-21T11:46:55;5.90;;;2.95;;
78324;SDS011;67584;51.400;6.692;2024-02-21T11:49:21;4.82;;;3.25;;
78324;SDS011;67584;51.400;6.692;2024-02-21T11:51:49;4.65;;;3.60;;
78324;SDS011;67584;51.400;6.692;2024-02-21T11:54:26;5.88;;;3.13;;
78324;SDS011;67584;51.400;6.692;2024-02-21T11:56:52;6.18;;;3.10;;
78324;SDS011;67584;51.400;6.692;2024-02-21T11:59:18;4.18;;;2.80;;
78324;SDS011;67584;51.400;6.692;2024-02-21T12:01:44;9.45;;;4.13;;
78324;SDS011;67584;51.400;6.692;2024-02-21T12:04:10;5.65;;;3.38;;
78324;SDS011;67584;51.400;6.692;2024-02-21T12:06:36;3.92;;;2.80;;
78324;SDS011;67584;51.400;6.692;2024-02-21T12:09:01;6.43;;;3.03;;
78324;SDS011;67584;51.400;6.692;2024-02-21T12:11:27;5.93;;;3.20;;
78324;SDS011;67584;51.400;6.692;2024-02-21T12:13:59;5.53;;;2.88;;
78324;SDS011;67584;51.400;6.692;2024-02-21T12:16:27;3.53;;;2.70;;
78324;SDS011;67584;51.400;6.692;2024-02-21T12:18:54;6.22;;;2.67;;
78324;SDS011;67584;51.400;6.692;2024-02-21T12:21:23;6.30;;;3.28;;
78324;SDS011;67584;51.400;6.692;2024-02-21T12:23:49;7.20;;;3.10;;
78324;SDS011;67584;51.400;6.692;2024-02-21T12:26:15;7.00;;;3.20;;
78324;SDS011;67584;51.400;6.692;2024-02-21T12:28:41;5.45;;;2.90;;
78324;SDS011;67584;51.400;6.692;2024-02-21T12:31:06;3.95;;;2.72;;
78324;SDS011;67584;51.400;6.692;2024-02-21T12:33:32;8.73;;;3.85;;
78324;SDS011;67584;51.400;6.692;2024-02-21T12:35:58;9.10;;;3.50;;
78324;SDS011;67584;51.400;6.692;2024-02-21T12:38:23;5.80;;;2.63;;
78324;SDS011;67584;51.400;6.692;2024-02-21T12:40:49;8.15;;;3.50;;
78324;SDS011;67584;51.400;6.692;2024-02-21T12:43:15;5.63;;;3.25;;
78324;SDS011;67584;51.400;6.692;2024-02-21T12:45:40;5.15;;;2.58;;
78324;SDS011;67584;51.400;6.692;2024-02-21T12:48:06;6.22;;;3.30;;
78324;SDS011;67584;51.400;6.692;2024-02-21T12:50:32;4.63;;;2.75;;
78324;SDS011;67584;51.400;6.692;2024-02-21T12:52:58;5.35;;;2.90;;
78324;SDS011;67584;51.400;6.692;2024-02-21T12:55:24;5.68;;;3.45;;
78324;SDS011;67584;51.400;6.692;2024-02-21T12:57:50;5.50;;;3.60;;
78324;SDS011;67584;51.400;6.692;2024-02-21T13:00:15;4.70;;;3.03;;
78324;SDS011;67584;51.400;6.692;2024-02-21T13:02:41;7.15;;;3.03;;
78324;SDS011;67584;51.400;6.692;2024-02-21T13:05:07;4.13;;;2.65;;
78324;SDS011;67584;51.400;6.692;2024-02-21T13:07:33;6.68;;;2.95;;
78324;SDS011;67584;51.400;6.692;2024-02-21T13:09:59;5.75;;;3.33;;
78324;SDS011;67584;51.400;6.692;2024-02-21T13:12:25;6.85;;;3.33;;
78324;SDS011;67584;51.400;6.692;2024-02-21T13:14:55;2.88;;;2.30;;
78324;SDS011;67584;51.400;6.692;2024-02-21T13:17:20;3.80;;;2.38;;
78324;SDS011;67584;51.400;6.692;2024-02-21T13:19:47;5.68;;;2.83;;
78324;SDS011;67584;51.400;6.692;2024-02-21T13:22:13;5.50;;;2.80;;
78324;SDS011;67584;51.400;6.692;2024-02-21T13:24:38;3.53;;;2.60;;
78324;SDS011;67584;51.400;6.692;2024-02-21T13:27:04;4.65;;;2.95;;
78324;SDS011;67584;51.400;6.692;2024-02-21T13:29:30;4.75;;;2.53;;
78324;SDS011;67584;51.400;6.692;2024-02-21T13:31:55;3.90;;;2.95;;
78324;SDS011;67584;51.400;6.692;2024-02-21T13:34:21;7.90;;;2.80;;
78324;SDS011;67584;51.400;6.692;2024-02-21T13:36:47;6.68;;;3.08;;
78324;SDS011;67584;51.400;6.692;2024-02-21T13:39:13;4.78;;;2.85;;
78324;SDS011;67584;51.400;6.692;2024-02-21T13:41:41;4.28;;;2.53;;
78324;SDS011;67584;51.400;6.692;2024-02-21T13:44:07;8.00;;;3.17;;
78324;SDS011;67584;51.400;6.692;2024-02-21T13:46:34;5.80;;;3.42;;
78324;SDS011;67584;51.400;6.692;2024-02-21T13:49:04;6.00;;;3.17;;
78324;SDS011;67584;51.400;6.692;2024-02-21T13:51:31;4.45;;;2.90;;
78324;SDS011;67584;51.400;6.692;2024-02-21T13:54:03;6.90;;;3.20;;
78324;SDS011;67584;51.400;6.692;2024-02-21T13:56:30;6.22;;;3.00;;
78324;SDS011;67584;51.400;6.692;2024-02-21T13:58:57;6.53;;;3.45;;
78324;SDS011;67584;51.400;6.692;2024-02-21T14:01:23;4.40;;;2.95;;
78324;SDS011;67584;51.400;6.692;2024-02-21T14:03:49;4.75;;;2.85;;
78324;SDS011;67584;51.400;6.692;2024-02-21T14:06:14;4.13;;;2.65;;
78324;SDS011;67584;51.400;6.692;2024-02-21T14:08:40;6.90;;;3.15;;
78324;SDS011;67584;51.400;6.692;2024-02-21T14:11:06;5.90;;;2.63;;
78324;SDS011;67584;51.400;6.692;2024-02-21T14:13:32;5.93;;;2.78;;
78324;SDS011;67584;51.400;6.692;2024-02-21T14:15:58;8.00;;;3.88;;
78324;SDS011;67584;51.400;6.692;2024-02-21T14:18:23;6.78;;;3.45;;
78324;SDS011;67584;51.400;6.692;2024-02-21T14:20:49;5.03;;;2.95;;
78324;SDS011;67584;51.400;6.692;2024-02-21T14:23:14;5.53;;;3.05;;
78324;SDS011;67584;51.400;6.692;2024-02-21T14:25:40;3.90;;;2.95;;
78324;SDS011;67584;51.400;6.692;2024-02-21T14:28:07;6.47;;;2.90;;
78324;SDS011;67584;51.400;6.692;2024-02-21T14:30:34;5.88;;;2.95;;
78324;SDS011;67584;51.400;6.692;2024-02-21T14:33:00;4.78;;;3.35;;
78324;SDS011;67584;51.400;6.692;2024-02-21T14:35:26;3.47;;;3.03;;
78324;SDS011;67584;51.400;6.692;2024-02-21T14:37:51;6.60;;;3.70;;
78324;SDS011;67584;51.400;6.692;2024-02-21T14:40:18;5.07;;;3.13;;
78324;SDS011;67584;51.400;6.692;2024-02-21T14:42:45;6.20;;;3.33;;
78324;SDS011;67584;51.400;6.692;2024-02-21T14:45:11;9.10;;;3.22;;
78324;SDS011;67584;51.400;6.692;2024-02-21T14:47:38;4.55;;;2.65;;
78324;SDS011;67584;51.400;6.692;2024-02-21T14:50:04;5.32;;;3.13;;
78324;SDS011;67584;51.400;6.692;2024-02-21T14:52:31;4.15;;;2.78;;
78324;SDS011;67584;51.400;6.692;2024-02-21T14:54:58;4.82;;;3.00;;
78324;SDS011;67584;51.400;6.692;2024-02-21T14:57:23;5.35;;;3.65;;
78324;SDS011;67584;51.400;6.692;2024-02-21T14:59:50;6.47;;;3.67;;
78324;SDS011;67584;51.400;6.692;2024-02-21T15:02:21;8.45;;;3.88;;
78324;SDS011;67584;51.400;6.692;2024-02-21T15:04:48;6.60;;;3.83;;
78324;SDS011;67584;51.400;6.692;2024-02-21T15:07:13;6.15;;;3.65;;